sensor_id;sensor_type;location;lat;lon;timestamp;pressure;altitude;pressure_sealevel;temperature;humidity
28312;BME280;15572;48.810;9.148;2023-09-08T00:00:07;98308.75;;;16.09;100.00
28312;BME280;15572;48.810;9.148;2023-09-08T00:05:04;98312.47;;;16.14;100.00
28312;BME280;15572;48.810;9.148;2023-09-08T00:10:01;98306.13;;;16.02;100.00
28312;BME280;15572;48.810;9.148;2023-09-08T00:14:57;98314.31;;;16.02;100.00
28312;BME280;15572;48.810;9.148;2023-09-08T00:19:56;98303.63;;;16.00;100.00
28312;BME280;15572;48.810;9.148;2023-09-08T00:24:53;98306.50;;;16.06;100.00
28312;BME280;15572;48.810;9.148;2023-09-08T00:29:50;98309.38;;;15.92;100.00
28312;BME280;15572;48.810;9.148;2023-09-08T00:34:46;98310.31;;;15.86;100.00
28312;BME280;15572;48.810;9.148;2023-09-08T00:39:44;98310.75;;;15.83;100.00
28312;BME280;15572;48.810;9.148;2023-09-08T00:44:41;98311.44;;;15.79;100.00
28312;BME280;15572;48.810;9.148;2023-09-08T00:49:38;98313.94;;;15.80;100.00
28312;BME280;15572;48.810;9.148;2023-09-08T00:54:34;98314.63;;;15.76;100.00
28312;BME280;15572;48.810;9.148;2023-09-08T00:59:33;98314.38;;;15.77;100.00
28312;BME280;15572;48.810;9.148;2023-09-08T01:04:30;98310.91;;;15.70;100.00
28312;BME280;15572;48.810;9.148;2023-09-08T01:09:28;98308.97;;;15.52;100.00
28312;BME280;15572;48.810;9.148;2023-09-08T01:14:26;98309.47;;;15.43;100.00
28312;BME280;15572;48.810;9.148;2023-09-08T01:19:25;98301.84;;;15.51;100.00
28312;BME280;15572;48.810;9.148;2023-09-08T01:24:34;98310.22;;;15.50;100.00
28312;BME280;15572;48.810;9.148;2023-09-08T01:29:36;98313.69;;;15.39;100.00
28312;BME280;15572;48.810;9.148;2023-09-08T01:34:35;98316.09;;;15.29;100.00
28312;BME280;15572;48.810;9.148;2023-09-08T01:39:34;98313.50;;;15.15;100.00
28312;BME280;15572;48.810;9.148;2023-09-08T01:44:31;98311.88;;;15.08;100.00
28312;BME280;15572;48.810;9.148;2023-09-08T01:49:29;98307.56;;;15.18;100.00
28312;BME280;15572;48.810;9.148;2023-09-08T01:54:25;98306.97;;;15.16;100.00
28312;BME280;15572;48.810;9.148;2023-09-08T01:59:22;98306.41;;;15.08;100.00
28312;BME280;15572;48.810;9.148;2023-09-08T02:04:18;98311.47;;;15.04;100.00
28312;BME280;15572;48.810;9.148;2023-09-08T02:09:16;98310.53;;;14.92;100.00
28312;BME280;15572;48.810;9.148;2023-09-08T02:14:12;98304.84;;;14.94;100.00
28312;BME280;15572;48.810;9.148;2023-09-08T02:19:09;98298.41;;;14.88;100.00
28312;BME280;15572;48.810;9.148;2023-09-08T02:24:06;98300.50;;;14.86;100.00
28312;BME280;15572;48.810;9.148;2023-09-08T02:29:04;98301.91;;;14.95;100.00
28312;BME280;15572;48.810;9.148;2023-09-08T02:34:00;98302.34;;;14.92;100.00
28312;BME280;15572;48.810;9.148;2023-09-08T02:38:57;98299.66;;;14.86;100.00
28312;BME280;15572;48.810;9.148;2023-09-08T02:43:53;98296.38;;;14.77;100.00
28312;BME280;15572;48.810;9.148;2023-09-08T02:48:51;98297.44;;;14.76;100.00
28312;BME280;15572;48.810;9.148;2023-09-08T02:53:47;98296.78;;;14.81;100.00
28312;BME280;15572;48.810;9.148;2023-09-08T02:58:44;98297.09;;;14.66;100.00
28312;BME280;15572;48.810;9.148;2023-09-08T03:03:41;98294.88;;;14.50;100.00
28312;BME280;15572;48.810;9.148;2023-09-08T03:08:39;98299.72;;;14.48;100.00
28312;BME280;15572;48.810;9.148;2023-09-08T03:13:35;98299.97;;;14.40;100.00
28312;BME280;15572;48.810;9.148;2023-09-08T03:18:32;98298.53;;;14.30;100.00
28312;BME280;15572;48.810;9.148;2023-09-08T03:23:29;98299.41;;;14.24;100.00
28312;BME280;15572;48.810;9.148;2023-09-08T03:28:26;98295.63;;;14.25;100.00
28312;BME280;15572;48.810;9.148;2023-09-08T03:33:23;98298.78;;;14.22;100.00
28312;BME280;15572;48.810;9.148;2023-09-08T03:38:19;98289.56;;;14.23;100.00
28312;BME280;15572;48.810;9.148;2023-09-08T03:43:16;98294.53;;;14.33;100.00
28312;BME280;15572;48.810;9.148;2023-09-08T03:48:14;98293.31;;;14.29;100.00
28312;BME280;15572;48.810;9.148;2023-09-08T03:53:11;98298.97;;;14.27;100.00
28312;BME280;15572;48.810;9.148;2023-09-08T03:58:07;98297.50;;;14.31;100.00
28312;BME280;15572;48.810;9.148;2023-09-08T04:03:04;98305.06;;;14.23;100.00
28312;BME280;15572;48.810;9.148;2023-09-08T04:08:02;98308.88;;;14.15;100.00
28312;BME280;15572;48.810;9.148;2023-09-08T04:12:59;98310.34;;;14.11;100.00
28312;BME280;15572;48.810;9.148;2023-09-08T04:17:55;98318.50;;;14.11;100.00
28312;BME280;15572;48.810;9.148;2023-09-08T04:22:52;98315.59;;;14.06;100.00
28312;BME280;15572;48.810;9.148;2023-09-08T04:27:50;98315.03;;;13.98;100.00
28312;BME280;15572;48.810;9.148;2023-09-08T04:32:46;98311.91;;;13.87;100.00
28312;BME280;15572;48.810;9.148;2023-09-08T04:37:43;98318.00;;;13.83;100.00
28312;BME280;15572;48.810;9.148;2023-09-08T04:42:39;98320.28;;;13.86;100.00
28312;BME280;15572;48.810;9.148;2023-09-08T04:47:37;98326.75;;;13.98;100.00
28312;BME280;15572;48.810;9.148;2023-09-08T04:52:34;98318.13;;;14.01;100.00
28312;BME280;15572;48.810;9.148;2023-09-08T04:57:30;98325.28;;;13.96;100.00
28312;BME280;15572;48.810;9.148;2023-09-08T05:02:27;98321.13;;;13.93;100.00
28312;BME280;15572;48.810;9.148;2023-09-08T05:07:24;98323.78;;;14.00;100.00
28312;BME280;15572;48.810;9.148;2023-09-08T05:12:21;98324.41;;;14.08;100.00
28312;BME280;15572;48.810;9.148;2023-09-08T05:17:17;98326.69;;;14.11;100.00
28312;BME280;15572;48.810;9.148;2023-09-08T05:22:14;98323.31;;;14.16;100.00
28312;BME280;15572;48.810;9.148;2023-09-08T05:27:12;98326.63;;;14.24;100.00
28312;BME280;15572;48.810;9.148;2023-09-08T05:32:08;98327.69;;;14.23;100.00
28312;BME280;15572;48.810;9.148;2023-09-08T05:37:05;98334.34;;;14.27;100.00
28312;BME280;15572;48.810;9.148;2023-09-08T05:42:01;98343.13;;;14.36;100.00
28312;BME280;15572;48.810;9.148;2023-09-08T05:46:59;98339.34;;;14.44;100.00
28312;BME280;15572;48.810;9.148;2023-09-08T05:51:56;98344.31;;;14.53;100.00
28312;BME280;15572;48.810;9.148;2023-09-08T05:56:52;98342.78;;;14.64;100.00
28312;BME280;15572;48.810;9.148;2023-09-08T06:01:48;98336.41;;;14.77;100.00
28312;BME280;15572;48.810;9.148;2023-09-08T06:06:46;98349.13;;;14.89;100.00
28312;BME280;15572;48.810;9.148;2023-09-08T06:11:43;98354.25;;;15.04;100.00
28312;BME280;15572;48.810;9.148;2023-09-08T06:16:39;98341.13;;;15.19;100.00
28312;BME280;15572;48.810;9.148;2023-09-08T06:21:37;98340.19;;;15.32;100.00
28312;BME280;15572;48.810;9.148;2023-09-08T06:26:34;98343.63;;;15.45;100.00
28312;BME280;15572;48.810;9.148;2023-09-08T06:31:31;98339.38;;;15.56;100.00
28312;BME280;15572;48.810;9.148;2023-09-08T06:36:28;98347.19;;;15.71;100.00
28312;BME280;15572;48.810;9.148;2023-09-08T06:41:24;98351.00;;;15.88;100.00
28312;BME280;15572;48.810;9.148;2023-09-08T06:46:23;98348.50;;;16.05;100.00
28312;BME280;15572;48.810;9.148;2023-09-08T06:51:20;98337.81;;;16.21;100.00
28312;BME280;15572;48.810;9.148;2023-09-08T06:56:16;98343.69;;;16.36;100.00
28312;BME280;15572;48.810;9.148;2023-09-08T07:01:13;98352.09;;;16.53;100.00
28312;BME280;15572;48.810;9.148;2023-09-08T07:06:11;98350.22;;;16.72;100.00
28312;BME280;15572;48.810;9.148;2023-09-08T07:11:07;98347.75;;;16.82;100.00
28312;BME280;15572;48.810;9.148;2023-09-08T07:16:04;98343.38;;;17.04;100.00
28312;BME280;15572;48.810;9.148;2023-09-08T07:21:00;98356.03;;;17.17;100.00
28312;BME280;15572;48.810;9.148;2023-09-08T07:25:58;98355.13;;;17.35;100.00
28312;BME280;15572;48.810;9.148;2023-09-08T07:31:00;98344.78;;;17.48;100.00
28312;BME280;15572;48.810;9.148;2023-09-08T07:35:57;98342.91;;;17.60;100.00
28312;BME280;15572;48.810;9.148;2023-09-08T07:41:01;98349.09;;;17.79;100.00
28312;BME280;15572;48.810;9.148;2023-09-08T07:45:57;98349.34;;;17.89;100.00
28312;BME280;15572;48.810;9.148;2023-09-08T07:50:54;98350.13;;;18.01;100.00
28312;BME280;15572;48.810;9.148;2023-09-08T07:55:50;98353.09;;;18.12;100.00
28312;BME280;15572;48.810;9.148;2023-09-08T08:00:48;98351.41;;;18.22;100.00
28312;BME280;15572;48.810;9.148;2023-09-08T08:05:44;98348.28;;;18.42;100.00
28312;BME280;15572;48.810;9.148;2023-09-08T08:10:41;98339.06;;;18.60;100.00
28312;BME280;15572;48.810;9.148;2023-09-08T08:15:40;98342.91;;;18.75;100.00
28312;BME280;15572;48.810;9.148;2023-09-08T08:20:38;98347.13;;;18.95;100.00
28312;BME280;15572;48.810;9.148;2023-09-08T08:25:35;98344.44;;;19.11;100.00
28312;BME280;15572;48.810;9.148;2023-09-08T08:30:31;98343.34;;;19.29;100.00
28312;BME280;15572;48.810;9.148;2023-09-08T08:35:28;98349.09;;;19.44;100.00
28312;BME280;15572;48.810;9.148;2023-09-08T08:40:26;98341.28;;;19.69;100.00
28312;BME280;15572;48.810;9.148;2023-09-08T08:45:24;98331.75;;;19.94;100.00
28312;BME280;15572;48.810;9.148;2023-09-08T08:50:21;98334.22;;;20.12;100.00
28312;BME280;15572;48.810;9.148;2023-09-08T08:55:18;98335.81;;;20.30;100.00
28312;BME280;15572;48.810;9.148;2023-09-08T09:00:16;98326.97;;;20.44;100.00
28312;BME280;15572;48.810;9.148;2023-09-08T09:05:13;98331.28;;;20.62;100.00
28312;BME280;15572;48.810;9.148;2023-09-08T09:10:10;98316.69;;;20.83;100.00
28312;BME280;15572;48.810;9.148;2023-09-08T09:15:07;98320.75;;;21.08;100.00
28312;BME280;15572;48.810;9.148;2023-09-08T09:20:15;98323.00;;;21.42;100.00
28312;BME280;15572;48.810;9.148;2023-09-08T09:25:21;98332.59;;;21.67;100.00
28312;BME280;15572;48.810;9.148;2023-09-08T09:30:17;98338.06;;;21.99;99.50
28312;BME280;15572;48.810;9.148;2023-09-08T09:35:15;98330.19;;;22.22;97.81
28312;BME280;15572;48.810;9.148;2023-09-08T09:40:12;98338.00;;;22.46;95.49
28312;BME280;15572;48.810;9.148;2023-09-08T09:45:10;98341.78;;;22.92;86.78
28312;BME280;15572;48.810;9.148;2023-09-08T09:50:07;98330.50;;;23.08;87.17
28312;BME280;15572;48.810;9.148;2023-09-08T09:55:06;98333.56;;;23.17;83.93
28312;BME280;15572;48.810;9.148;2023-09-08T10:00:05;98319.75;;;23.32;83.17
28312;BME280;15572;48.810;9.148;2023-09-08T10:05:10;98320.34;;;23.55;81.18
28312;BME280;15572;48.810;9.148;2023-09-08T10:10:09;98319.50;;;23.69;80.71
28312;BME280;15572;48.810;9.148;2023-09-08T10:15:07;98319.44;;;23.95;83.15
28312;BME280;15572;48.810;9.148;2023-09-08T10:20:08;98312.25;;;24.09;79.53
28312;BME280;15572;48.810;9.148;2023-09-08T10:25:09;98303.66;;;24.10;79.55
28312;BME280;15572;48.810;9.148;2023-09-08T10:30:07;98305.06;;;24.18;79.35
28312;BME280;15572;48.810;9.148;2023-09-08T10:35:05;98304.75;;;24.24;78.14
28312;BME280;15572;48.810;9.148;2023-09-08T10:40:23;98295.47;;;24.54;75.26
28312;BME280;15572;48.810;9.148;2023-09-08T10:45:21;98303.63;;;24.85;74.38
28312;BME280;15572;48.810;9.148;2023-09-08T10:50:18;98280.47;;;25.14;72.44
28312;BME280;15572;48.810;9.148;2023-09-08T10:55:15;98295.56;;;25.66;69.88
28312;BME280;15572;48.810;9.148;2023-09-08T11:00:18;98290.94;;;26.38;67.91
28312;BME280;15572;48.810;9.148;2023-09-08T11:05:16;98292.03;;;26.79;65.84
28312;BME280;15572;48.810;9.148;2023-09-08T11:10:15;98298.75;;;27.35;61.46
28312;BME280;15572;48.810;9.148;2023-09-08T11:15:13;98289.72;;;27.61;55.17
28312;BME280;15572;48.810;9.148;2023-09-08T11:20:10;98291.56;;;28.12;54.83
28312;BME280;15572;48.810;9.148;2023-09-08T11:25:08;98285.84;;;28.99;54.29
28312;BME280;15572;48.810;9.148;2023-09-08T11:30:07;98281.38;;;29.79;52.08
28312;BME280;15572;48.810;9.148;2023-09-08T11:40:04;98282.25;;;30.19;48.20
28312;BME280;15572;48.810;9.148;2023-09-08T11:45:05;98278.69;;;30.66;46.40
28312;BME280;15572;48.810;9.148;2023-09-08T11:50:02;98287.13;;;31.35;45.75
28312;BME280;15572;48.810;9.148;2023-09-08T11:54:59;98285.81;;;31.50;45.14
28312;BME280;15572;48.810;9.148;2023-09-08T11:59:57;98280.41;;;31.19;44.41
28312;BME280;15572;48.810;9.148;2023-09-08T12:04:55;98279.38;;;31.15;44.23
28312;BME280;15572;48.810;9.148;2023-09-08T12:09:51;98278.53;;;31.83;43.02
28312;BME280;15572;48.810;9.148;2023-09-08T12:14:48;98277.94;;;32.07;42.52
28312;BME280;15572;48.810;9.148;2023-09-08T12:19:46;98275.50;;;32.43;42.10
28312;BME280;15572;48.810;9.148;2023-09-08T12:24:46;98268.19;;;31.75;42.51
28312;BME280;15572;48.810;9.148;2023-09-08T12:29:51;98259.31;;;32.11;40.94
28312;BME280;15572;48.810;9.148;2023-09-08T12:34:50;98261.72;;;32.38;40.81
28312;BME280;15572;48.810;9.148;2023-09-08T12:39:47;98258.34;;;32.53;40.34
28312;BME280;15572;48.810;9.148;2023-09-08T12:44:43;98253.75;;;32.78;40.33
28312;BME280;15572;48.810;9.148;2023-09-08T12:49:40;98246.59;;;33.10;40.35
28312;BME280;15572;48.810;9.148;2023-09-08T12:54:38;98240.25;;;33.22;41.07
28312;BME280;15572;48.810;9.148;2023-09-08T12:59:34;98239.00;;;33.31;41.01
28312;BME280;15572;48.810;9.148;2023-09-08T13:04:31;98238.53;;;32.58;40.35
28312;BME280;15572;48.810;9.148;2023-09-08T13:09:27;98236.44;;;32.17;41.51
28312;BME280;15572;48.810;9.148;2023-09-08T13:14:25;98229.53;;;32.53;41.56
28312;BME280;15572;48.810;9.148;2023-09-08T13:19:21;98218.91;;;32.67;41.60
28312;BME280;15572;48.810;9.148;2023-09-08T13:24:18;98225.97;;;31.16;42.42
28312;BME280;15572;48.810;9.148;2023-09-08T13:29:16;98213.13;;;30.81;42.08
28312;BME280;15572;48.810;9.148;2023-09-08T13:34:15;98209.75;;;30.44;43.73
28312;BME280;15572;48.810;9.148;2023-09-08T13:39:11;98205.53;;;29.77;45.30
28312;BME280;15572;48.810;9.148;2023-09-08T13:44:08;98197.00;;;29.20;46.48
28312;BME280;15572;48.810;9.148;2023-09-08T13:49:04;98195.34;;;28.61;49.17
28312;BME280;15572;48.810;9.148;2023-09-08T13:54:03;98189.22;;;28.36;49.70
28312;BME280;15572;48.810;9.148;2023-09-08T13:59:00;98195.63;;;28.10;50.99
28312;BME280;15572;48.810;9.148;2023-09-08T14:03:56;98200.22;;;28.00;51.01
28312;BME280;15572;48.810;9.148;2023-09-08T14:08:55;98201.38;;;27.86;51.90
28312;BME280;15572;48.810;9.148;2023-09-08T14:13:53;98196.53;;;27.78;52.74
28312;BME280;15572;48.810;9.148;2023-09-08T14:18:50;98195.09;;;27.67;53.58
28312;BME280;15572;48.810;9.148;2023-09-08T14:23:46;98184.16;;;27.56;53.29
28312;BME280;15572;48.810;9.148;2023-09-08T14:28:43;98189.81;;;28.06;49.09
28312;BME280;15572;48.810;9.148;2023-09-08T14:33:40;98183.25;;;28.29;48.15
28312;BME280;15572;48.810;9.148;2023-09-08T14:38:37;98184.88;;;28.44;48.06
28312;BME280;15572;48.810;9.148;2023-09-08T14:43:33;98193.06;;;28.63;47.36
28312;BME280;15572;48.810;9.148;2023-09-08T14:48:32;98192.56;;;28.61;47.04
28312;BME280;15572;48.810;9.148;2023-09-08T14:53:30;98179.75;;;28.60;47.71
28312;BME280;15572;48.810;9.148;2023-09-08T14:58:36;98177.94;;;28.55;47.58
28312;BME280;15572;48.810;9.148;2023-09-08T15:03:34;98178.44;;;28.57;47.16
28312;BME280;15572;48.810;9.148;2023-09-08T15:08:33;98176.16;;;28.59;47.68
28312;BME280;15572;48.810;9.148;2023-09-08T15:13:30;98170.75;;;28.40;49.53
28312;BME280;15572;48.810;9.148;2023-09-08T15:18:26;98180.75;;;28.41;48.15
28312;BME280;15572;48.810;9.148;2023-09-08T15:23:23;98171.13;;;28.47;48.50
28312;BME280;15572;48.810;9.148;2023-09-08T15:28:20;98175.97;;;28.56;48.44
28312;BME280;15572;48.810;9.148;2023-09-08T15:33:18;98168.56;;;28.51;48.71
28312;BME280;15572;48.810;9.148;2023-09-08T15:38:15;98168.56;;;28.51;49.20
28312;BME280;15572;48.810;9.148;2023-09-08T15:43:12;98176.16;;;28.59;49.43
28312;BME280;15572;48.810;9.148;2023-09-08T15:48:10;98164.53;;;28.93;48.70
28312;BME280;15572;48.810;9.148;2023-09-08T15:53:07;98163.25;;;29.21;48.04
28312;BME280;15572;48.810;9.148;2023-09-08T15:58:04;98161.41;;;29.39;47.44
28312;BME280;15572;48.810;9.148;2023-09-08T16:03:00;98164.19;;;29.39;47.68
28312;BME280;15572;48.810;9.148;2023-09-08T16:07:58;98160.22;;;29.32;48.17
28312;BME280;15572;48.810;9.148;2023-09-08T16:12:54;98158.56;;;29.08;48.87
28312;BME280;15572;48.810;9.148;2023-09-08T16:17:52;98150.97;;;28.64;49.77
28312;BME280;15572;48.810;9.148;2023-09-08T16:22:49;98157.78;;;28.22;50.88
28312;BME280;15572;48.810;9.148;2023-09-08T16:27:47;98152.72;;;28.11;48.31
28312;BME280;15572;48.810;9.148;2023-09-08T16:32:44;98155.44;;;28.02;48.38
28312;BME280;15572;48.810;9.148;2023-09-08T16:37:40;98151.81;;;28.01;47.60
28312;BME280;15572;48.810;9.148;2023-09-08T16:42:38;98156.66;;;27.96;47.76
28312;BME280;15572;48.810;9.148;2023-09-08T16:47:36;98162.63;;;27.89;48.25
28312;BME280;15572;48.810;9.148;2023-09-08T16:52:32;98152.13;;;27.73;49.02
28312;BME280;15572;48.810;9.148;2023-09-08T16:57:29;98153.59;;;27.70;48.16
28312;BME280;15572;48.810;9.148;2023-09-08T17:02:25;98156.47;;;27.65;48.06
28312;BME280;15572;48.810;9.148;2023-09-08T17:07:23;98160.66;;;27.62;47.54
28312;BME280;15572;48.810;9.148;2023-09-08T17:12:20;98163.16;;;27.50;48.09
28312;BME280;15572;48.810;9.148;2023-09-08T17:17:16;98151.47;;;27.35;49.22
28312;BME280;15572;48.810;9.148;2023-09-08T17:22:13;98157.47;;;27.09;50.65
28312;BME280;15572;48.810;9.148;2023-09-08T17:27:10;98162.09;;;26.81;52.83
28312;BME280;15572;48.810;9.148;2023-09-08T17:32:07;98156.91;;;26.56;55.03
28312;BME280;15572;48.810;9.148;2023-09-08T17:37:03;98152.34;;;26.28;57.38
28312;BME280;15572;48.810;9.148;2023-09-08T17:42:00;98162.22;;;25.91;60.51
28312;BME280;15572;48.810;9.148;2023-09-08T17:46:58;98158.50;;;25.53;65.47
28312;BME280;15572;48.810;9.148;2023-09-08T17:51:55;98162.78;;;25.12;69.24
28312;BME280;15572;48.810;9.148;2023-09-08T17:56:51;98164.41;;;24.79;72.72
28312;BME280;15572;48.810;9.148;2023-09-08T18:01:48;98162.19;;;24.42;74.68
28312;BME280;15572;48.810;9.148;2023-09-08T18:06:46;98172.88;;;24.05;79.76
28312;BME280;15572;48.810;9.148;2023-09-08T18:11:42;98173.88;;;23.70;82.49
28312;BME280;15572;48.810;9.148;2023-09-08T18:16:39;98183.06;;;23.55;81.93
28312;BME280;15572;48.810;9.148;2023-09-08T18:21:35;98187.75;;;23.34;82.99
28312;BME280;15572;48.810;9.148;2023-09-08T18:26:33;98182.81;;;23.11;84.64
28312;BME280;15572;48.810;9.148;2023-09-08T18:31:30;98188.34;;;22.91;86.45
28312;BME280;15572;48.810;9.148;2023-09-08T18:36:27;98184.47;;;22.77;87.35
28312;BME280;15572;48.810;9.148;2023-09-08T18:41:24;98195.47;;;22.61;88.33
28312;BME280;15572;48.810;9.148;2023-09-08T18:46:22;98190.47;;;22.43;88.90
28312;BME280;15572;48.810;9.148;2023-09-08T18:51:18;98197.59;;;22.29;89.06
28312;BME280;15572;48.810;9.148;2023-09-08T18:56:14;98203.91;;;22.19;89.07
28312;BME280;15572;48.810;9.148;2023-09-08T19:01:13;98206.91;;;22.08;90.90
28312;BME280;15572;48.810;9.148;2023-09-08T19:06:11;98208.78;;;21.97;92.20
28312;BME280;15572;48.810;9.148;2023-09-08T19:11:07;98204.28;;;21.81;92.86
28312;BME280;15572;48.810;9.148;2023-09-08T19:16:04;98203.63;;;21.64;94.92
28312;BME280;15572;48.810;9.148;2023-09-08T19:21:00;98211.31;;;21.52;95.75
28312;BME280;15572;48.810;9.148;2023-09-08T19:26:03;98207.94;;;21.45;96.92
28312;BME280;15572;48.810;9.148;2023-09-08T19:31:00;98205.13;;;21.34;98.00
28312;BME280;15572;48.810;9.148;2023-09-08T19:35:57;98205.75;;;21.10;100.00
28312;BME280;15572;48.810;9.148;2023-09-08T19:41:01;98216.56;;;20.89;100.00
28312;BME280;15572;48.810;9.148;2023-09-08T19:46:02;98214.56;;;20.80;100.00
28312;BME280;15572;48.810;9.148;2023-09-08T19:50:58;98207.38;;;20.74;100.00
28312;BME280;15572;48.810;9.148;2023-09-08T19:55:57;98206.34;;;20.53;100.00
28312;BME280;15572;48.810;9.148;2023-09-08T20:01:02;98207.97;;;20.49;100.00
28312;BME280;15572;48.810;9.148;2023-09-08T20:05:59;98207.19;;;20.53;100.00
28312;BME280;15572;48.810;9.148;2023-09-08T20:10:56;98206.34;;;20.53;100.00
28312;BME280;15572;48.810;9.148;2023-09-08T20:15:58;98207.97;;;20.49;100.00
28312;BME280;15572;48.810;9.148;2023-09-08T20:20:57;98209.31;;;20.46;100.00
28312;BME280;15572;48.810;9.148;2023-09-08T20:25:57;98203.44;;;20.38;100.00
28312;BME280;15572;48.810;9.148;2023-09-08T20:30:53;98209.16;;;20.31;100.00
28312;BME280;15572;48.810;9.148;2023-09-08T20:35:51;98204.66;;;20.25;100.00
28312;BME280;15572;48.810;9.148;2023-09-08T20:40:48;98209.72;;;20.11;100.00
28312;BME280;15572;48.810;9.148;2023-09-08T20:45:51;98202.97;;;19.97;100.00
28312;BME280;15572;48.810;9.148;2023-09-08T20:50:48;98198.94;;;19.83;100.00
28312;BME280;15572;48.810;9.148;2023-09-08T20:55:46;98198.94;;;19.83;100.00
28312;BME280;15572;48.810;9.148;2023-09-08T21:00:43;98203.59;;;19.83;100.00
28312;BME280;15572;48.810;9.148;2023-09-08T21:05:39;98203.53;;;19.77;100.00
28312;BME280;15572;48.810;9.148;2023-09-08T21:10:36;98199.34;;;19.70;100.00
28312;BME280;15572;48.810;9.148;2023-09-08T21:15:34;98195.94;;;19.63;100.00
28312;BME280;15572;48.810;9.148;2023-09-08T21:20:30;98205.25;;;19.62;100.00
28312;BME280;15572;48.810;9.148;2023-09-08T21:25:27;98200.03;;;19.60;100.00
28312;BME280;15572;48.810;9.148;2023-09-08T21:30:24;98187.88;;;19.56;100.00
28312;BME280;15572;48.810;9.148;2023-09-08T21:35:22;98192.16;;;19.47;100.00
28312;BME280;15572;48.810;9.148;2023-09-08T21:40:21;98198.88;;;19.40;100.00
28312;BME280;15572;48.810;9.148;2023-09-08T21:45:18;98193.59;;;19.33;100.00
28312;BME280;15572;48.810;9.148;2023-09-08T21:50:14;98189.66;;;19.29;100.00
28312;BME280;15572;48.810;9.148;2023-09-08T21:55:12;98193.16;;;19.24;100.00
28312;BME280;15572;48.810;9.148;2023-09-08T22:00:12;98196.19;;;19.23;100.00
28312;BME280;15572;48.810;9.148;2023-09-08T22:05:12;98189.28;;;19.20;100.00
28312;BME280;15572;48.810;9.148;2023-09-08T22:10:09;98198.25;;;19.16;100.00
28312;BME280;15572;48.810;9.148;2023-09-08T22:15:08;98195.53;;;18.99;100.00
28312;BME280;15572;48.810;9.148;2023-09-08T22:20:06;98199.59;;;18.97;100.00
28312;BME280;15572;48.810;9.148;2023-09-08T22:25:08;98195.38;;;18.89;100.00
28312;BME280;15572;48.810;9.148;2023-09-08T22:30:07;98191.03;;;18.76;100.00
28312;BME280;15572;48.810;9.148;2023-09-08T22:35:06;98197.28;;;18.72;100.00
28312;BME280;15572;48.810;9.148;2023-09-08T22:40:03;98194.53;;;18.72;100.00
28312;BME280;15572;48.810;9.148;2023-09-08T22:45:01;98196.34;;;18.66;100.00
28312;BME280;15572;48.810;9.148;2023-09-08T22:50:03;98190.69;;;18.56;100.00
28312;BME280;15572;48.810;9.148;2023-09-08T22:55:03;98192.25;;;18.52;100.00
28312;BME280;15572;48.810;9.148;2023-09-08T23:00:00;98192.31;;;18.40;100.00
28312;BME280;15572;48.810;9.148;2023-09-08T23:05:00;98186.19;;;18.22;100.00
28312;BME280;15572;48.810;9.148;2023-09-08T23:09:57;98187.19;;;18.16;100.00
28312;BME280;15572;48.810;9.148;2023-09-08T23:14:53;98184.78;;;18.19;100.00
28312;BME280;15572;48.810;9.148;2023-09-08T23:19:50;98177.72;;;18.23;100.00
28312;BME280;15572;48.810;9.148;2023-09-08T23:24:47;98172.00;;;18.25;100.00
28312;BME280;15572;48.810;9.148;2023-09-08T23:29:44;98174.34;;;18.16;100.00
28312;BME280;15572;48.810;9.148;2023-09-08T23:34:40;98168.41;;;18.07;100.00
28312;BME280;15572;48.810;9.148;2023-09-08T23:39:37;98164.06;;;17.95;100.00
28312;BME280;15572;48.810;9.148;2023-09-08T23:44:35;98172.16;;;17.90;100.00
28312;BME280;15572;48.810;9.148;2023-09-08T23:49:31;98167.28;;;17.92;100.00
28312;BME280;15572;48.810;9.148;2023-09-08T23:54:28;98166.09;;;17.88;100.00
28312;BME280;15572;48.810;9.148;2023-09-08T23:59:24;98163.38;;;17.88;100.00
